Time;durP1;ratioP1;P1;durP2;ratioP2;P2;SDS_P1;SDS_P2;PMS_P1;PMS_P2;Temp;Humidity;BMP_temperature;BMP_pressure;BME280_temperature;BME280_humidity;BME280_pressure;Samples;Min_cycle;Max_cycle;Signal;HPM_P1;HPM_P2
2021/04/10 00:01:28;;;;;;;4.95;3.03;;;13.50;61.00;;;;;;5005729;28;20033;-82
2021/04/10 00:03:54;;;;;;;5.60;3.03;;;13.40;61.00;;;;;;5015015;28;20025;-83
2021/04/10 00:06:20;;;;;;;4.97;3.17;;;13.40;61.00;;;;;;5006605;28;20042;-82
2021/04/10 00:08:46;;;;;;;4.63;2.83;;;13.40;61.00;;;;;;5010154;28;20053;-81
2021/04/10 00:11:11;;;;;;;5.45;3.35;;;13.40;61.10;;;;;;5026993;28;20104;-81
2021/04/10 00:13:37;;;;;;;3.97;2.72;;;13.30;61.10;;;;;;5013685;28;20120;-81
2021/04/10 00:16:03;;;;;;;5.88;2.60;;;13.30;61.10;;;;;;4981746;28;20037;-82
2021/04/10 00:18:29;;;;;;;5.13;2.90;;;13.30;61.10;;;;;;5012679;28;20029;-82
2021/04/10 00:20:55;;;;;;;4.78;2.97;;;13.20;61.10;;;;;;5003709;28;20038;-81
2021/04/10 00:23:20;;;;;;;5.07;2.80;;;13.20;61.20;;;;;;5001566;28;20025;-82
2021/04/10 00:25:46;;;;;;;3.85;2.40;;;13.20;61.20;;;;;;5018902;28;20613;-82
2021/04/10 00:28:12;;;;;;;4.22;2.53;;;13.10;61.10;;;;;;5004830;28;20026;-81
2021/04/10 00:30:37;;;;;;;5.72;3.00;;;13.10;61.20;;;;;;4994531;28;20084;-81
2021/04/10 00:33:03;;;;;;;3.75;2.58;;;13.10;61.20;;;;;;5022198;28;20037;-81
2021/04/10 00:35:31;;;;;;;4.97;2.60;;;13.10;61.30;;;;;;5021571;28;20113;-81
2021/04/10 00:37:57;;;;;;;4.10;2.60;;;13.00;61.20;;;;;;5030189;28;20108;-82
2021/04/10 00:40:23;;;;;;;3.88;2.65;;;13.00;61.20;;;;;;5015962;28;20076;-81
2021/04/10 00:42:49;;;;;;;4.65;2.50;;;13.00;61.30;;;;;;5010097;28;20545;-81
2021/04/10 00:45:19;;;;;;;4.03;2.38;;;12.90;61.30;;;;;;5018256;28;20530;-83
2021/04/10 00:47:48;;;;;;;4.57;2.50;;;12.90;61.90;;;;;;5011083;28;20038;-82
2021/04/10 00:50:14;;;;;;;4.68;2.42;;;12.90;61.30;;;;;;5023029;28;20068;-81
2021/04/10 00:52:41;;;;;;;5.07;2.63;;;12.90;61.40;;;;;;4995972;28;20034;-82
2021/04/10 00:55:09;;;;;;;5.03;2.70;;;12.80;61.30;;;;;;5025147;28;20037;-82
2021/04/10 00:57:35;;;;;;;3.47;2.20;;;12.80;61.40;;;;;;5031182;28;20056;-82
2021/04/10 01:00:03;;;;;;;5.00;2.40;;;12.80;61.40;;;;;;5014784;28;20041;-82
2021/04/10 01:02:29;;;;;;;3.88;2.47;;;12.80;61.40;;;;;;5000846;28;20045;-81
2021/04/10 01:04:59;;;;;;;3.83;2.17;;;12.80;61.40;;;;;;4987282;28;20130;-81
2021/04/10 01:07:25;;;;;;;3.38;2.25;;;12.70;61.40;;;;;;5037463;28;20140;-81
2021/04/10 01:09:53;;;;;;;3.70;2.40;;;12.70;61.40;;;;;;5039200;28;20054;-81
2021/04/10 01:12:42;;;;;;;4.05;2.58;;;12.70;61.50;;;;;;5046112;28;20477;-81
2021/04/10 01:15:21;;;;;;;2.40;1.83;;;12.60;61.40;;;;;;5055493;28;20043;-81
2021/04/10 01:17:58;;;;;;;3.40;1.77;;;12.60;61.50;;;;;;5041750;28;20027;-81
2021/04/10 01:20:46;;;;;;;3.05;2.05;;;12.60;61.50;;;;;;5053584;28;20032;-82
2021/04/10 01:23:38;;;;;;;2.92;1.90;;;12.50;61.60;;;;;;5036808;28;20530;-81
2021/04/10 01:26:29;;;;;;;2.28;1.65;;;12.50;61.60;;;;;;5036730;28;20568;-81
2021/04/10 01:29:05;;;;;;;3.38;1.85;;;12.50;61.60;;;;;;5056463;28;20111;-81
2021/04/10 01:31:37;;;;;;;3.08;1.90;;;12.40;61.60;;;;;;5044286;28;20116;-82
2021/04/10 01:34:10;;;;;;;2.92;1.80;;;12.40;61.70;;;;;;5053195;28;20029;-81
2021/04/10 01:36:39;;;;;;;4.85;2.00;;;12.40;61.70;;;;;;5030715;28;20032;-81
2021/04/10 01:39:09;;;;;;;3.28;1.83;;;12.30;61.70;;;;;;5038800;28;20082;-81
2021/04/10 01:41:40;;;;;;;3.22;1.88;;;12.30;61.80;;;;;;5053437;28;20024;-81
2021/04/10 01:44:07;;;;;;;3.33;1.85;;;12.30;61.80;;;;;;5048894;28;20115;-82
2021/04/10 01:46:35;;;;;;;3.38;1.80;;;12.30;61.80;;;;;;5034497;28;20029;-81
2021/04/10 01:49:03;;;;;;;2.90;1.92;;;12.30;61.80;;;;;;5055484;28;20491;-82
2021/04/10 01:51:31;;;;;;;3.63;1.90;;;12.30;61.80;;;;;;5049475;28;20075;-81
2021/04/10 01:53:58;;;;;;;3.25;1.98;;;12.20;61.80;;;;;;5041756;28;20017;-81
2021/04/10 01:56:27;;;;;;;3.00;1.92;;;12.20;61.80;;;;;;5036117;28;20029;-81
2021/04/10 01:58:55;;;;;;;2.90;1.92;;;12.20;61.80;;;;;;5028846;28;20485;-81
2021/04/10 02:01:32;;;;;;;3.55;1.90;;;12.10;61.70;;;;;;5027125;28;20037;-81
2021/04/10 02:03:59;;;;;;;2.53;1.73;;;12.10;61.70;;;;;;5031998;28;20518;-82
2021/04/10 02:06:28;;;;;;;2.25;1.65;;;12.10;61.80;;;;;;5023472;28;20048;-82
2021/04/10 02:09:05;;;;;;;4.68;1.98;;;12.10;61.80;;;;;;5047467;28;20031;-81
2021/04/10 02:11:50;;;;;;;3.30;1.80;;;12.10;61.90;;;;;;5052649;28;20037;-82
2021/04/10 02:14:24;;;;;;;2.13;1.50;;;12.10;61.80;;;;;;5029966;28;20519;-81
2021/04/10 02:16:51;;;;;;;3.42;1.70;;;12.00;61.80;;;;;;5036262;28;20480;-81
2021/04/10 02:19:22;;;;;;;2.35;1.60;;;12.00;61.90;;;;;;4997293;28;20040;-81
2021/04/10 02:21:58;;;;;;;2.88;1.70;;;12.00;61.90;;;;;;5049852;28;20053;-81
2021/04/10 02:24:24;;;;;;;3.58;2.00;;;12.00;61.90;;;;;;5035607;28;20044;-82
2021/04/10 02:26:57;;;;;;;3.20;1.98;;;11.90;61.90;;;;;;5016743;28;20433;-82
2021/04/10 02:29:30;;;;;;;3.20;1.80;;;11.90;61.90;;;;;;5030768;28;20024;-82
2021/04/10 02:32:24;;;;;;;1.88;1.40;;;11.90;61.90;;;;;;5037404;28;20036;-81
2021/04/10 02:35:04;;;;;;;2.83;1.80;;;11.80;62.10;;;;;;5030882;28;20029;-80
2021/04/10 02:37:32;;;;;;;2.63;1.60;;;11.80;62.00;;;;;;5036673;28;20025;-81
2021/04/10 02:40:01;;;;;;;2.65;1.70;;;11.80;61.90;;;;;;5047456;28;20032;-81
2021/04/10 02:42:31;;;;;;;3.03;1.75;;;11.80;62.00;;;;;;5036831;28;20033;-81
2021/04/10 02:45:02;;;;;;;3.50;1.92;;;11.80;62.00;;;;;;5035712;28;20021;-82
2021/04/10 02:47:28;;;;;;;3.00;1.80;;;11.70;62.00;;;;;;5038754;28;20478;-82
2021/04/10 02:50:01;;;;;;;2.85;1.67;;;11.70;62.00;;;;;;5028760;28;20024;-82
2021/04/10 02:52:45;;;;;;;3.33;1.95;;;11.70;62.10;;;;;;5032768;28;20493;-81
2021/04/10 02:55:19;;;;;;;2.90;1.80;;;11.60;62.00;;;;;;5038307;28;20461;-81
2021/04/10 02:57:47;;;;;;;2.97;1.90;;;11.70;62.10;;;;;;5036067;28;20040;-81
2021/04/10 03:00:17;;;;;;;3.28;2.00;;;11.60;62.10;;;;;;5043487;28;20047;-81
2021/04/10 03:02:45;;;;;;;3.60;1.80;;;11.60;62.10;;;;;;5055479;28;20040;-81
2021/04/10 03:05:14;;;;;;;3.40;2.00;;;11.60;62.10;;;;;;5033823;28;20171;-82
2021/04/10 03:07:46;;;;;;;2.65;1.90;;;11.50;62.10;;;;;;5051775;28;20032;-82
2021/04/10 03:10:16;;;;;;;3.90;2.50;;;11.50;62.20;;;;;;5030615;28;20397;-81
2021/04/10 03:12:44;;;;;;;3.38;2.10;;;11.50;62.10;;;;;;5041907;28;20111;-81
2021/04/10 03:15:16;;;;;;;4.53;1.80;;;11.50;62.20;;;;;;5015116;28;20044;-81
2021/04/10 03:17:48;;;;;;;2.05;1.65;;;11.50;62.20;;;;;;5035068;28;20072;-82
2021/04/10 03:20:16;;;;;;;3.92;2.10;;;11.50;62.20;;;;;;5022304;28;20028;-81
2021/04/10 03:22:47;;;;;;;3.13;1.92;;;11.40;62.20;;;;;;5039642;28;20020;-81
2021/04/10 03:25:18;;;;;;;2.78;1.90;;;11.40;62.30;;;;;;5044124;28;20029;-82
2021/04/10 03:27:46;;;;;;;3.08;1.75;;;11.40;62.20;;;;;;5028896;28;20033;-81
2021/04/10 03:30:13;;;;;;;3.22;1.80;;;11.30;62.20;;;;;;5018470;28;20398;-81
2021/04/10 03:32:47;;;;;;;3.25;1.90;;;11.30;62.30;;;;;;5038772;28;20048;-82
2021/04/10 03:35:14;;;;;;;3.67;1.80;;;11.30;62.30;;;;;;5038619;28;20032;-81
2021/04/10 03:37:40;;;;;;;3.40;2.47;;;11.30;62.30;;;;;;5037940;28;20059;-82
2021/04/10 03:40:11;;;;;;;3.05;1.95;;;11.30;62.30;;;;;;5040695;28;20480;-81
2021/04/10 03:42:41;;;;;;;4.05;2.08;;;11.20;62.30;;;;;;5033184;28;20115;-82
2021/04/10 03:45:13;;;;;;;4.18;2.00;;;11.30;62.40;;;;;;5050013;28;20064;-82
2021/04/10 03:47:41;;;;;;;3.20;1.80;;;11.20;62.40;;;;;;5034547;28;20083;-81
2021/04/10 03:50:08;;;;;;;3.95;1.90;;;11.20;62.40;;;;;;5029270;28;20024;-82
2021/04/10 03:52:35;;;;;;;3.78;2.22;;;11.20;62.40;;;;;;5003153;28;20059;-82
2021/04/10 03:55:05;;;;;;;3.80;1.90;;;11.20;62.40;;;;;;5036891;28;20064;-80
2021/04/10 03:57:35;;;;;;;2.40;1.83;;;11.10;62.40;;;;;;5049223;28;20033;-81
2021/04/10 04:00:02;;;;;;;2.65;1.80;;;11.10;62.40;;;;;;5037863;28;20035;-81
2021/04/10 04:02:41;;;;;;;2.95;1.90;;;11.10;62.50;;;;;;5051219;28;20032;-81
2021/04/10 04:05:09;;;;;;;2.67;1.85;;;11.10;62.50;;;;;;5031528;28;20461;-81
2021/04/10 04:07:35;;;;;;;3.22;1.92;;;11.10;62.50;;;;;;5034173;28;20090;-81
2021/04/10 04:10:01;;;;;;;3.15;1.90;;;11.00;62.60;;;;;;5020866;28;20033;-81
2021/04/10 04:12:27;;;;;;;4.07;2.28;;;11.00;62.50;;;;;;5012049;28;20035;-81
2021/04/10 04:14:53;;;;;;;3.08;1.83;;;11.00;62.60;;;;;;5033998;28;20035;-80
2021/04/10 04:17:18;;;;;;;2.97;2.00;;;11.00;62.60;;;;;;5036115;28;20029;-80
2021/04/10 04:19:44;;;;;;;4.38;1.95;;;11.00;62.60;;;;;;5017948;28;20119;-80
2021/04/10 04:22:10;;;;;;;2.92;1.90;;;10.90;62.60;;;;;;5050554;28;20497;-81
2021/04/10 04:24:36;;;;;;;3.33;1.90;;;10.90;62.60;;;;;;5053420;28;20461;-81
2021/04/10 04:27:03;;;;;;;3.88;1.98;;;10.90;62.60;;;;;;5037802;28;20043;-81
2021/04/10 04:29:29;;;;;;;4.13;2.17;;;10.90;62.70;;;;;;5041316;28;20040;-81
2021/04/10 04:31:55;;;;;;;2.35;1.85;;;10.90;62.70;;;;;;5039064;28;20035;-80
2021/04/10 04:34:21;;;;;;;3.25;2.30;;;10.90;62.70;;;;;;5046287;28;20601;-80
2021/04/10 04:36:47;;;;;;;3.50;2.00;;;10.90;62.70;;;;;;5054116;28;20482;-81
2021/04/10 04:39:13;;;;;;;3.47;2.17;;;10.80;62.70;;;;;;5056131;28;20544;-82
2021/04/10 04:41:39;;;;;;;3.65;2.30;;;10.80;62.70;;;;;;5036638;28;20036;-83
2021/04/10 04:44:05;;;;;;;3.83;2.40;;;10.80;62.80;;;;;;5041611;28;20029;-81
2021/04/10 04:46:31;;;;;;;3.15;2.20;;;10.80;62.80;;;;;;5032851;28;20048;-82
2021/04/10 04:48:56;;;;;;;2.88;2.25;;;10.80;62.80;;;;;;5033320;28;20063;-82
2021/04/10 04:51:22;;;;;;;3.58;2.08;;;10.80;62.90;;;;;;5042192;28;20525;-81
2021/04/10 04:53:48;;;;;;;2.80;2.20;;;10.70;62.80;;;;;;5057298;28;20462;-81
2021/04/10 04:56:14;;;;;;;3.75;2.40;;;10.70;62.80;;;;;;5040259;28;20465;-82
2021/04/10 04:58:40;;;;;;;3.80;2.20;;;10.70;62.90;;;;;;5047310;28;20035;-81
2021/04/10 05:01:06;;;;;;;3.42;2.33;;;10.70;62.90;;;;;;5054345;28;20541;-82
2021/04/10 05:03:32;;;;;;;3.30;2.15;;;10.70;62.90;;;;;;5056998;28;20059;-81
2021/04/10 05:05:57;;;;;;;5.10;2.80;;;10.70;62.90;;;;;;5010297;28;20081;-81
2021/04/10 05:08:23;;;;;;;3.95;2.58;;;10.70;62.90;;;;;;5009411;28;20057;-81
2021/04/10 05:10:49;;;;;;;4.00;2.38;;;10.60;62.90;;;;;;5026584;28;20496;-81
2021/04/10 05:13:15;;;;;;;3.05;2.10;;;10.60;62.90;;;;;;5017986;28;20500;-81
2021/04/10 05:15:41;;;;;;;3.42;2.30;;;10.60;63.00;;;;;;5021672;28;20064;-81
2021/04/10 05:18:06;;;;;;;5.78;2.90;;;10.60;63.00;;;;;;4992114;28;20030;-81
2021/04/10 05:20:32;;;;;;;4.47;2.55;;;10.60;63.00;;;;;;5013235;28;20479;-81
2021/04/10 05:22:58;;;;;;;4.20;2.33;;;10.60;63.00;;;;;;5011774;28;20036;-82
2021/04/10 05:25:24;;;;;;;3.97;2.30;;;10.60;63.00;;;;;;5013343;28;20030;-81
2021/04/10 05:27:51;;;;;;;3.78;2.53;;;10.50;63.00;;;;;;5025596;28;20482;-80
2021/04/10 05:30:18;;;;;;;3.53;2.35;;;10.50;63.10;;;;;;5014407;28;20034;-77
2021/04/10 05:32:44;;;;;;;4.32;2.60;;;10.50;63.00;;;;;;4999391;28;20711;-78
2021/04/10 05:35:11;;;;;;;3.85;2.63;;;10.50;63.10;;;;;;5014693;28;20029;-78
2021/04/10 05:37:36;;;;;;;3.58;2.20;;;10.50;63.10;;;;;;5029754;28;20026;-78
2021/04/10 05:40:04;;;;;;;4.10;2.33;;;10.40;63.00;;;;;;5030640;28;20052;-78
2021/04/10 05:42:30;;;;;;;4.30;2.35;;;10.50;63.20;;;;;;5023988;28;20033;-78
2021/04/10 05:44:56;;;;;;;2.83;2.22;;;10.50;63.10;;;;;;5019372;28;20045;-77
2021/04/10 05:47:22;;;;;;;4.65;2.47;;;10.50;63.20;;;;;;5016912;28;20030;-78
2021/04/10 05:49:48;;;;;;;3.38;2.55;;;10.40;63.20;;;;;;5009323;28;20034;-78
2021/04/10 05:52:14;;;;;;;3.55;2.22;;;10.40;63.20;;;;;;5006688;28;20026;-79
2021/04/10 05:54:40;;;;;;;3.33;2.22;;;10.40;63.20;;;;;;5020172;28;20038;-77
2021/04/10 05:57:06;;;;;;;3.47;2.55;;;10.40;63.20;;;;;;5013677;28;20037;-77
2021/04/10 05:59:32;;;;;;;3.80;2.20;;;10.40;63.20;;;;;;5020726;28;20146;-78
2021/04/10 06:01:57;;;;;;;3.65;2.38;;;10.40;63.20;;;;;;5003793;28;20683;-78
2021/04/10 06:04:23;;;;;;;4.40;2.40;;;10.40;63.20;;;;;;5006192;28;20030;-78
2021/04/10 06:06:49;;;;;;;4.05;2.20;;;10.40;63.30;;;;;;5024710;28;20137;-78
2021/04/10 06:09:15;;;;;;;3.08;2.25;;;10.40;63.30;;;;;;5025943;28;20022;-78
2021/04/10 06:11:41;;;;;;;3.78;2.35;;;10.30;63.20;;;;;;5025114;28;20029;-78
2021/04/10 06:14:06;;;;;;;4.57;2.42;;;10.30;63.30;;;;;;5005708;28;20786;-78
2021/04/10 06:16:32;;;;;;;4.97;2.30;;;10.30;63.30;;;;;;5023606;28;20053;-77
2021/04/10 06:18:58;;;;;;;4.03;2.63;;;10.30;63.30;;;;;;5014150;28;20075;-78
2021/04/10 06:21:24;;;;;;;3.85;2.42;;;10.40;63.40;;;;;;5007237;28;20048;-78
2021/04/10 06:23:49;;;;;;;4.93;2.30;;;10.30;63.30;;;;;;5002851;28;20038;-78
2021/04/10 06:26:15;;;;;;;3.13;2.13;;;10.30;63.30;;;;;;5012839;28;20497;-79
2021/04/10 06:28:41;;;;;;;4.43;2.45;;;10.30;63.40;;;;;;4994961;28;20026;-78
2021/04/10 06:31:07;;;;;;;2.22;1.92;;;10.30;63.40;;;;;;5027000;28;20112;-78
2021/04/10 06:33:32;;;;;;;3.63;2.30;;;10.30;63.40;;;;;;5012752;28;20033;-79
2021/04/10 06:35:58;;;;;;;4.35;2.03;;;10.30;63.40;;;;;;5014711;28;20042;-78
2021/04/10 06:38:24;;;;;;;2.50;1.75;;;10.30;63.40;;;;;;5027119;28;20103;-79
2021/04/10 06:40:50;;;;;;;4.72;2.30;;;10.30;63.40;;;;;;4999219;28;20389;-78
2021/04/10 06:43:16;;;;;;;4.20;2.00;;;10.30;63.40;;;;;;5017083;28;20194;-77
2021/04/10 06:45:42;;;;;;;3.00;2.00;;;10.30;63.40;;;;;;4996669;28;20641;-78
2021/04/10 06:48:13;;;;;;;3.38;1.83;;;10.30;63.40;;;;;;4991672;28;20036;-78
2021/04/10 06:50:42;;;;;;;2.92;1.70;;;10.30;63.50;;;;;;4995678;28;20034;-78
2021/04/10 06:53:13;;;;;;;3.47;2.20;;;10.30;63.50;;;;;;5011564;28;20022;-78
2021/04/10 06:55:45;;;;;;;3.45;1.95;;;10.30;64.20;;;;;;5009835;28;20407;-78
2021/04/10 06:58:17;;;;;;;2.92;1.70;;;10.30;63.50;;;;;;5017870;28;20092;-78
2021/04/10 07:00:43;;;;;;;2.97;1.80;;;10.30;63.50;;;;;;5013236;28;20052;-78
2021/04/10 07:03:09;;;;;;;3.97;2.13;;;10.30;63.50;;;;;;5008791;28;20543;-78
2021/04/10 07:05:35;;;;;;;4.05;1.95;;;10.30;63.50;;;;;;5017060;28;20144;-78
2021/04/10 07:08:01;;;;;;;3.17;2.00;;;10.30;63.50;;;;;;5000091;28;20118;-78
2021/04/10 07:10:27;;;;;;;2.78;1.75;;;10.30;63.60;;;;;;5025309;28;20033;-78
2021/04/10 07:12:53;;;;;;;3.50;2.08;;;10.30;63.50;;;;;;5020143;28;20044;-79
2021/04/10 07:15:19;;;;;;;3.80;1.90;;;10.30;63.50;;;;;;5015809;28;20079;-78
2021/04/10 07:17:50;;;;;;;2.88;1.80;;;10.30;63.50;;;;;;5001620;28;20062;-78
2021/04/10 07:20:31;;;;;;;2.53;1.80;;;10.40;63.60;;;;;;5040295;28;20480;-78
2021/04/10 07:22:57;;;;;;;2.90;1.88;;;10.30;63.70;;;;;;5031127;28;20470;-78
2021/04/10 07:25:24;;;;;;;3.60;2.20;;;10.40;63.60;;;;;;5030099;28;20040;-79
2021/04/10 07:27:50;;;;;;;2.50;2.05;;;10.40;63.70;;;;;;5034163;28;20087;-79
2021/04/10 07:30:17;;;;;;;2.80;1.95;;;10.40;63.70;;;;;;5009560;28;20049;-79
2021/04/10 07:32:43;;;;;;;3.38;2.00;;;10.40;63.70;;;;;;5025226;28;20028;-78
2021/04/10 07:35:11;;;;;;;3.42;2.10;;;10.40;63.70;;;;;;5032606;28;20536;-78
2021/04/10 07:37:50;;;;;;;3.17;1.70;;;10.40;63.70;;;;;;5020753;28;20092;-79
2021/04/10 07:40:26;;;;;;;3.65;1.90;;;10.40;63.80;;;;;;5034497;28;20152;-78
2021/04/10 07:42:59;;;;;;;3.35;1.88;;;10.40;63.80;;;;;;5016635;28;20104;-77
2021/04/10 07:45:35;;;;;;;2.30;1.63;;;10.40;63.70;;;;;;5039930;28;20030;-78
2021/04/10 07:48:05;;;;;;;3.63;1.90;;;10.40;63.80;;;;;;5032933;28;20116;-77
2021/04/10 07:50:34;;;;;;;3.10;2.03;;;10.40;63.80;;;;;;5048704;28;20029;-78
2021/04/10 07:53:27;;;;;;;4.00;2.00;;;10.40;63.80;;;;;;5044733;28;20033;-78
2021/04/10 07:55:57;;;;;;;4.57;2.00;;;10.40;64.00;;;;;;5033820;28;20079;-78
2021/04/10 07:58:27;;;;;;;2.50;1.77;;;10.50;63.80;;;;;;5026404;28;20536;-77
2021/04/10 08:00:57;;;;;;;2.75;1.80;;;10.50;63.90;;;;;;5043076;28;20044;-78
2021/04/10 08:03:25;;;;;;;3.08;1.80;;;10.50;63.90;;;;;;5050428;28;20493;-78
2021/04/10 08:05:55;;;;;;;3.00;2.00;;;10.50;63.90;;;;;;5032504;28;20064;-78
2021/04/10 08:08:22;;;;;;;3.30;2.15;;;10.50;63.90;;;;;;5039944;28;20035;-78
2021/04/10 08:11:03;;;;;;;3.58;1.88;;;10.50;63.90;;;;;;5031746;28;20033;-78
2021/04/10 08:13:29;;;;;;;2.75;1.70;;;10.60;64.00;;;;;;5048193;28;20029;-78
2021/04/10 08:16:14;;;;;;;2.30;1.85;;;10.60;64.00;;;;;;5025343;28;20534;-79
2021/04/10 08:18:44;;;;;;;3.55;2.17;;;10.60;64.00;;;;;;5045229;28;20056;-78
2021/04/10 08:21:12;;;;;;;2.60;1.85;;;10.60;63.90;;;;;;5048034;28;20025;-78
2021/04/10 08:23:38;;;;;;;3.58;2.03;;;10.70;63.90;;;;;;5035072;28;20334;-78
2021/04/10 08:26:04;;;;;;;2.67;2.03;;;10.70;64.00;;;;;;5025128;28;20037;-78
2021/04/10 08:28:30;;;;;;;3.40;1.85;;;10.70;64.00;;;;;;5017085;28;20033;-78
2021/04/10 08:30:58;;;;;;;3.25;1.98;;;10.70;63.90;;;;;;5022675;28;20040;-79
2021/04/10 08:33:29;;;;;;;3.78;1.90;;;10.70;63.90;;;;;;5035888;28;20025;-78
2021/04/10 08:35:57;;;;;;;2.88;1.70;;;10.80;64.00;;;;;;5033510;28;20024;-78
2021/04/10 08:38:24;;;;;;;1.98;1.73;;;10.80;63.90;;;;;;5025683;28;20032;-77
2021/04/10 08:40:57;;;;;;;2.38;1.85;;;10.80;63.90;;;;;;5030999;28;20025;-82
2021/04/10 08:43:25;;;;;;;3.17;2.00;;;10.90;64.00;;;;;;5034633;28;20032;-81
2021/04/10 08:45:53;;;;;;;2.88;1.70;;;10.90;63.90;;;;;;5033783;28;20454;-80
2021/04/10 08:48:21;;;;;;;3.50;1.95;;;10.90;63.90;;;;;;5026503;28;20071;-81
2021/04/10 08:50:47;;;;;;;3.65;1.95;;;10.90;63.90;;;;;;5025791;28;20378;-81
2021/04/10 08:53:27;;;;;;;2.53;1.60;;;10.90;63.90;;;;;;5050256;28;20650;-81
2021/04/10 08:55:55;;;;;;;4.10;1.80;;;11.00;63.90;;;;;;5020126;28;20032;-83
2021/04/10 08:58:23;;;;;;;2.60;1.90;;;11.00;63.80;;;;;;5059526;28;20013;-81
2021/04/10 09:00:57;;;;;;;3.28;1.70;;;11.00;63.80;;;;;;5034722;28;20021;-80
2021/04/10 09:03:44;;;;;;;3.08;1.77;;;11.10;63.90;;;;;;5045016;28;20473;-81
2021/04/10 09:06:16;;;;;;;2.40;1.92;;;11.10;64.00;;;;;;5056828;28;20055;-82
2021/04/10 09:08:41;;;;;;;2.17;1.70;;;11.10;63.80;;;;;;5023585;28;20024;-81
2021/04/10 09:11:08;;;;;;;2.72;2.10;;;11.20;63.90;;;;;;5020532;28;20033;-80
2021/04/10 09:13:42;;;;;;;3.17;2.00;;;11.20;63.90;;;;;;5046100;28;20028;-81
2021/04/10 09:16:40;;;;;;;3.27;1.80;;;11.20;63.90;;;;;;5037018;28;20028;-81
2021/04/10 09:19:17;;;;;;;3.70;1.88;;;11.20;63.90;;;;;;5031004;28;20074;-82
2021/04/10 09:22:01;;;;;;;3.50;1.85;;;11.30;63.70;;;;;;5049972;28;20025;-80
2021/04/10 09:24:37;;;;;;;3.80;1.92;;;11.30;63.90;;;;;;5039232;28;20082;-82
2021/04/10 09:27:17;;;;;;;3.30;1.80;;;11.40;63.70;;;;;;5049368;28;20040;-82
2021/04/10 09:29:48;;;;;;;3.55;1.92;;;11.40;63.70;;;;;;5038271;28;20028;-81
2021/04/10 09:32:30;;;;;;;2.42;1.70;;;11.40;63.70;;;;;;5040841;28;21428;-80
2021/04/10 09:35:03;;;;;;;3.10;1.67;;;11.50;63.80;;;;;;5056879;28;20028;-79
2021/04/10 09:37:28;;;;;;;3.92;1.88;;;11.50;63.60;;;;;;5056897;28;20025;-81
2021/04/10 09:39:57;;;;;;;3.53;1.80;;;11.50;63.60;;;;;;5075078;28;20073;-81
2021/04/10 09:45:09;;;;;;;2.22;1.52;;;11.60;63.70;;;;;;5056781;28;20086;-80
2021/04/10 09:50:31;;;;;;;3.17;1.75;;;11.70;63.60;;;;;;5056292;28;20116;-80
2021/04/10 09:53:01;;;;;;;2.72;1.50;;;11.70;63.40;;;;;;5055061;28;20495;-82
2021/04/10 09:55:29;;;;;;;3.22;1.83;;;11.70;63.40;;;;;;5038071;28;20032;-80
2021/04/10 09:58:01;;;;;;;2.25;1.55;;;11.80;63.50;;;;;;5048949;28;20386;-81
2021/04/10 10:00:32;;;;;;;3.88;2.08;;;11.80;63.50;;;;;;5046351;28;20032;-81
2021/04/10 10:03:00;;;;;;;3.30;1.75;;;11.80;63.40;;;;;;5020662;28;20462;-79
2021/04/10 10:05:34;;;;;;;3.70;1.70;;;11.80;63.40;;;;;;5061825;28;20029;-79
2021/04/10 10:08:04;;;;;;;2.83;1.88;;;11.90;63.40;;;;;;5073293;28;20063;-83
2021/04/10 10:10:53;;;;;;;2.33;1.58;;;11.90;64.00;;;;;;5080483;28;20059;-83
2021/04/10 10:13:25;;;;;;;2.72;1.67;;;11.90;63.30;;;;;;5030665;28;20032;-83
2021/04/10 10:15:52;;;;;;;3.03;1.80;;;12.00;63.20;;;;;;5034934;28;20021;-82
2021/04/10 10:18:27;;;;;;;3.55;2.10;;;12.00;63.20;;;;;;5042472;28;20058;-84
2021/04/10 10:21:17;;;;;;;1.88;1.70;;;12.10;63.30;;;;;;5034023;28;20056;-83
2021/04/10 10:23:52;;;;;;;1.98;1.63;;;12.10;63.30;;;;;;5035770;28;20112;-83
2021/04/10 10:26:21;;;;;;;2.78;1.80;;;12.10;63.10;;;;;;5060044;28;20043;-83
2021/04/10 10:28:49;;;;;;;2.35;1.70;;;12.10;63.10;;;;;;5057564;28;20024;-83
2021/04/10 10:31:21;;;;;;;4.57;2.03;;;12.10;63.10;;;;;;5063423;28;20085;-83
2021/04/10 10:33:48;;;;;;;3.55;1.70;;;12.20;63.10;;;;;;5036325;28;20036;-83
2021/04/10 10:36:15;;;;;;;3.40;1.77;;;12.20;63.00;;;;;;5049207;28;20040;-84
2021/04/10 10:38:47;;;;;;;3.28;2.00;;;12.20;63.00;;;;;;5031286;28;20051;-84
2021/04/10 10:41:16;;;;;;;2.72;2.00;;;12.30;63.00;;;;;;5066546;28;20036;-84
2021/04/10 10:43:43;;;;;;;3.17;2.10;;;12.20;63.00;;;;;;5036267;28;20104;-83
2021/04/10 10:46:17;;;;;;;3.22;1.83;;;12.30;63.00;;;;;;5047006;28;20120;-84
2021/04/10 10:48:42;;;;;;;2.42;1.63;;;12.30;63.00;;;;;;5045165;28;20048;-80
2021/04/10 10:51:09;;;;;;;4.80;2.25;;;12.30;62.90;;;;;;5027892;28;20113;-81
2021/04/10 10:53:43;;;;;;;3.90;1.85;;;12.40;63.00;;;;;;5029903;28;20056;-79
2021/04/10 10:56:29;;;;;;;2.53;1.88;;;12.40;63.00;;;;;;5032427;28;20125;-79
2021/04/10 10:58:58;;;;;;;;;;;12.40;63.10;;;;;;5023790;28;20029;-79
2021/04/10 11:01:24;;;;;;;3.80;2.00;;;12.40;63.00;;;;;;5061624;28;19916;-79
2021/04/10 11:03:51;;;;;;;3.47;1.80;;;12.40;62.80;;;;;;5036254;28;20024;-78
2021/04/10 11:06:22;;;;;;;2.78;1.88;;;12.40;63.00;;;;;;5039478;28;21211;-79
2021/04/10 11:08:49;;;;;;;3.85;2.13;;;12.40;63.10;;;;;;5071925;28;20036;-78
2021/04/10 11:11:16;;;;;;;3.47;1.90;;;12.40;63.10;;;;;;5038227;28;20031;-78
2021/04/10 11:13:46;;;;;;;2.95;1.95;;;12.50;63.20;;;;;;5039800;28;20025;-79
2021/04/10 11:16:14;;;;;;;3.60;2.03;;;12.50;63.20;;;;;;5038088;28;20033;-79
2021/04/10 11:18:40;;;;;;;4.00;2.20;;;12.50;63.20;;;;;;5067056;28;20021;-78
2021/04/10 11:21:24;;;;;;;3.88;2.03;;;12.40;63.10;;;;;;5033435;28;20087;-79
2021/04/10 11:23:56;;;;;;;2.25;1.75;;;12.50;63.30;;;;;;5052230;28;20027;-79
2021/04/10 11:26:37;;;;;;;3.45;2.17;;;12.50;63.20;;;;;;5067790;28;20099;-80
2021/04/10 11:29:35;;;;;;;2.67;1.98;;;12.50;63.30;;;;;;5054663;28;20047;-79
2021/04/10 11:32:04;;;;;;;2.75;1.80;;;12.50;63.40;;;;;;4983664;28;20102;-78
2021/04/10 11:34:34;;;;;;;2.75;1.98;;;12.50;63.30;;;;;;5072140;28;20029;-79
2021/04/10 11:37:02;;;;;;;4.72;2.60;;;12.60;63.40;;;;;;5053802;28;20055;-78
2021/04/10 11:39:29;;;;;;;2.97;2.13;;;12.50;63.30;;;;;;5040246;28;20465;-78
2021/04/10 11:41:55;;;;;;;4.72;2.22;;;12.60;63.40;;;;;;5050300;28;20016;-79
2021/04/10 11:44:22;;;;;;;2.88;2.15;;;12.60;63.40;;;;;;5034296;28;20092;-79
2021/04/10 11:47:01;;;;;;;4.68;2.53;;;12.60;63.40;;;;;;5030921;28;20037;-80
2021/04/10 11:49:28;;;;;;;4.10;2.40;;;12.60;63.40;;;;;;5038714;28;20032;-78
2021/04/10 11:51:54;;;;;;;4.28;2.40;;;12.60;63.40;;;;;;5036720;28;20033;-79
2021/04/10 11:54:34;;;;;;;4.13;2.47;;;12.60;63.40;;;;;;5044602;28;20053;-80
2021/04/10 11:57:00;;;;;;;5.10;2.75;;;12.60;63.60;;;;;;5054321;28;20120;-81
2021/04/10 11:59:36;;;;;;;5.18;2.83;;;12.60;63.50;;;;;;5053916;28;20028;-80
2021/04/10 12:02:03;;;;;;;4.32;2.72;;;12.60;63.50;;;;;;5037611;28;20465;-81
2021/04/10 12:04:37;;;;;;;3.53;2.63;;;12.60;63.50;;;;;;5037159;28;20029;-80
2021/04/10 12:07:13;;;;;;;4.10;2.70;;;12.60;63.50;;;;;;5052131;28;20455;-79
2021/04/10 12:09:41;;;;;;;4.05;2.92;;;12.60;63.50;;;;;;5021023;28;21584;-81
2021/04/10 12:12:11;;;;;;;3.85;2.80;;;12.70;63.60;;;;;;5037730;28;20036;-83
2021/04/10 12:14:43;;;;;;;4.95;3.13;;;12.70;63.60;;;;;;5044133;28;20127;-83
2021/04/10 12:17:14;;;;;;;5.13;3.58;;;12.70;63.60;;;;;;5032216;28;20032;-83
2021/04/10 12:19:40;;;;;;;4.68;3.33;;;12.60;63.60;;;;;;5048674;28;20116;-84
2021/04/10 12:22:06;;;;;;;4.75;3.30;;;12.70;63.60;;;;;;5037060;28;20074;-87
2021/04/10 12:24:38;;;;;;;5.05;3.70;;;12.70;63.70;;;;;;5039019;28;20037;-90
2021/04/10 12:27:04;;;;;;;5.15;3.58;;;12.70;63.70;;;;;;5042246;28;20033;-91
2021/04/10 12:29:30;;;;;;;6.45;3.78;;;12.70;63.70;;;;;;5018221;28;20033;-90
2021/04/10 12:31:56;;;;;;;6.10;4.07;;;12.70;63.70;;;;;;5033335;28;20081;-93
2021/04/10 12:34:21;;;;;;;5.90;3.92;;;12.70;63.70;;;;;;5013520;28;20071;-91
2021/04/10 12:36:50;;;;;;;5.18;3.78;;;12.70;63.70;;;;;;5034480;28;20029;-96
2021/04/10 12:39:16;;;;;;;6.55;4.18;;;12.70;63.70;;;;;;5055921;28;20024;-90
2021/04/10 12:41:42;;;;;;;6.90;4.60;;;12.70;63.70;;;;;;5039350;28;20024;-94
2021/04/10 12:44:08;;;;;;;7.03;4.72;;;12.70;63.70;;;;;;5030572;28;20028;-89
2021/04/10 12:46:33;;;;;;;7.35;5.03;;;12.70;63.80;;;;;;5061357;28;20037;-86
2021/04/10 12:48:59;;;;;;;6.32;4.15;;;12.70;63.80;;;;;;5034930;28;20044;-84
2021/04/10 12:51:25;;;;;;;6.38;4.35;;;12.70;63.80;;;;;;5037454;28;20032;-86
2021/04/10 12:53:51;;;;;;;6.55;4.55;;;12.70;63.80;;;;;;5023769;28;20060;-84
2021/04/10 12:56:20;;;;;;;6.55;4.90;;;12.70;63.90;;;;;;5075887;28;20085;-85
2021/04/10 12:58:47;;;;;;;6.45;4.97;;;12.70;63.90;;;;;;5033126;28;20033;-84
2021/04/10 13:01:16;;;;;;;7.05;4.70;;;12.70;63.90;;;;;;5032922;28;20095;-90
2021/04/10 13:03:42;;;;;;;6.82;4.35;;;12.70;63.90;;;;;;5042403;28;20029;-88
2021/04/10 13:06:08;;;;;;;6.10;4.50;;;12.70;63.90;;;;;;5037773;28;20105;-87